Daydream Believer — V7XJ3 — position and weather

sailwx.info

Track history (hours):
 
Tides and Currents Weather Stations Pressure Air Temp Water Temp Dewpoint Dewpoint Depression Visibility Wind Speed Wind Dir Waves Ship Positions

Daydream Believer

Last reported at 2014-Nov-21 18:32 UTC. Time now 2014-Nov-21 20:23 UTC.
Position N 36°00' E 120°16'.

Length 178 m; draft 8.5 m.

Type: Cargo ship. MMSI: 538004493.

Date/timePositionNaut miles runAvg speedWind from/ knotsBaromVisibWave heightAir tempDewpointWater temp
2014-Nov-21 18:32N 36°00' E 120°16'0 0.0
2014-Nov-21 17:32N 36°00' E 120°16'0 0.0
2014-Nov-21 16:20N 36°00' E 120°16'0 0.0
2014-Nov-21 15:32N 36°00' E 120°16'0 0.0
2014-Nov-21 14:32N 36°00' E 120°16'0 0.0
2014-Nov-21 13:26N 36°00' E 120°16'0 0.0
2014-Nov-21 12:26N 36°00' E 120°16'0 0.0
2014-Nov-21 11:20N 36°00' E 120°16'0 0.0
2014-Nov-21 06:20N 36°00' E 120°16'0 0.0
2014-Nov-21 05:20N 36°00' E 120°16'0 0.0
2014-Nov-21 04:32N 36°00' E 120°16'0 0.0
2014-Nov-21 03:26N 36°00' E 120°16'0 0.0
2014-Nov-21 02:32N 36°00' E 120°16'0 0.0
2014-Nov-21 01:32N 36°00' E 120°16'0 0.0
2014-Nov-21 00:26N 36°00' E 120°16'0 0.0
2014-Nov-20 22:26N 36°00' E 120°16'0 0.0
2014-Nov-20 21:32N 36°00' E 120°16'0 0.0
2014-Nov-20 20:26N 36°00' E 120°16'0 0.0
2014-Nov-20 19:32N 36°00' E 120°16'0 0.0
2014-Nov-20 18:32N 36°00' E 120°16'0 0.0
2014-Nov-20 17:20N 36°00' E 120°16'0 0.0
2014-Nov-20 16:32N 36°00' E 120°16'0 0.0
2014-Nov-20 15:32N 36°00' E 120°16'0 0.0
2014-Nov-20 14:20N 36°00' E 120°16'0 0.0
2014-Nov-20 13:26N 36°00' E 120°16'0 0.0
2014-Nov-20 12:32N 36°00' E 120°16'0 0.0
2014-Nov-20 08:29N 36°00' E 120°16'2 1.8
2014-Nov-20 07:33N 36°02' E 120°16'4 4.2
2014-Nov-20 06:33N 36°06' E 120°15'0 0.0
2014-Nov-20 05:16N 36°06' E 120°15'0 0.0
2014-Nov-20 04:22N 36°06' E 120°15'0 0.1
2014-Nov-20 03:28N 36°06' E 120°15'0 0.0
2014-Nov-20 02:22N 36°06' E 120°15'0 0.0
2014-Nov-20 01:10N 36°06' E 120°15'0 0.1
2014-Nov-20 00:28N 36°06' E 120°15'0 0.0
2014-Nov-19 23:16N 36°06' E 120°15'0 0.0
2014-Nov-19 22:22N 36°06' E 120°15'0 0.0
2014-Nov-19 21:22N 36°06' E 120°15'0 0.0
2014-Nov-19 19:22N 36°06' E 120°15'0 0.1
2014-Nov-19 18:28N 36°06' E 120°15'0 0.0
2014-Nov-19 15:16N 36°06' E 120°15'0 0.0
2014-Nov-19 14:28N 36°06' E 120°15'0 0.0
2014-Nov-19 11:28N 36°06' E 120°15'0 0.0
2014-Nov-19 10:28N 36°06' E 120°15'0 0.1
2014-Nov-19 09:28N 36°06' E 120°15'0 0.0
2014-Nov-19 08:16N 36°06' E 120°15'0 0.0
2014-Nov-19 07:16N 36°06' E 120°15'0 0.0
2014-Nov-19 05:22N 36°06' E 120°15'0 0.0
2014-Nov-19 04:16N 36°06' E 120°15'0 0.0
2014-Nov-18 23:22N 36°06' E 120°15'0 0.0
2014-Nov-18 22:22N 36°06' E 120°15'0 0.0
2014-Nov-18 21:10N 36°06' E 120°15'0 0.0
2014-Nov-18 20:16N 36°06' E 120°15'0 0.0
2014-Nov-18 19:22N 36°06' E 120°15'0 0.1
2014-Nov-18 18:16N 36°06' E 120°15'0 0.0
2014-Nov-18 17:28N 36°06' E 120°15'0 0.0
2014-Nov-18 16:16N 36°06' E 120°15'0 0.1
2014-Nov-18 15:28N 36°06' E 120°15'0 0.0
2014-Nov-18 14:28N 36°06' E 120°15'0 0.0
2014-Nov-18 13:22N 36°06' E 120°15'0 0.0
2014-Nov-18 09:04N 36°06' E 120°15'0 0.0
2014-Nov-18 08:28N 36°06' E 120°15'0 0.0
2014-Nov-18 07:28N 36°06' E 120°15'0 0.0
2014-Nov-18 06:22N 36°06' E 120°15'0 0.1
2014-Nov-18 05:16N 36°06' E 120°15'0 0.1
2014-Nov-18 04:28N 36°06' E 120°15'0 0.1
2014-Nov-18 03:33N 36°06' E 120°15'7 0.4
2014-Nov-17 09:18N 35°60' E 120°12'0 0.0
2014-Nov-17 06:24N 35°60' E 120°12'0 0.0
2014-Nov-16 19:06N 35°60' E 120°12'0 0.0
2014-Nov-16 17:06N 35°60' E 120°12'0 0.0
2014-Nov-16 14:22N 35°60' E 120°12'5 6.1
2014-Nov-16 13:32N 36°02' E 120°17'9 9.1
2014-Nov-16 12:33N 36°00' E 120°28'6 6.5
2014-Nov-16 11:33N 35°59' E 120°36'9 6.0
2014-Nov-16 10:04N 35°56' E 120°46'  
2014-Nov-13 11:13N 34°05' E 130°43'  
Track history (hours):
 
Tides and Currents Weather Stations Pressure Air Temp Water Temp Dewpoint Dewpoint Depression Visibility Wind Speed Wind Dir Waves Ship Positions

Daydream Believer

Last reported at 2014-Nov-21 18:32 UTC. Time now 2014-Nov-21 20:23 UTC.
Position N 36°00' E 120°16'.

Length 178 m; draft 8.5 m.

Type: Cargo ship. MMSI: 538004493.

Date/timePositionNaut miles runAvg speedWind from/ knotsBaromVisibWave heightAir tempDewpointWater temp
2014-Nov-21 18:32N 36°00' E 120°16'0 0.0
2014-Nov-21 17:32N 36°00' E 120°16'0 0.0
2014-Nov-21 16:20N 36°00' E 120°16'0 0.0
2014-Nov-21 15:32N 36°00' E 120°16'0 0.0
2014-Nov-21 14:32N 36°00' E 120°16'0 0.0
2014-Nov-21 13:26N 36°00' E 120°16'0 0.0
2014-Nov-21 12:26N 36°00' E 120°16'0 0.0
2014-Nov-21 11:20N 36°00' E 120°16'0 0.0
2014-Nov-21 06:20N 36°00' E 120°16'0 0.0
2014-Nov-21 05:20N 36°00' E 120°16'0 0.0
2014-Nov-21 04:32N 36°00' E 120°16'0 0.0
2014-Nov-21 03:26N 36°00' E 120°16'0 0.0
2014-Nov-21 02:32N 36°00' E 120°16'0 0.0
2014-Nov-21 01:32N 36°00' E 120°16'0 0.0
2014-Nov-21 00:26N 36°00' E 120°16'0 0.0
2014-Nov-20 22:26N 36°00' E 120°16'0 0.0
2014-Nov-20 21:32N 36°00' E 120°16'0 0.0
2014-Nov-20 20:26N 36°00' E 120°16'0 0.0
2014-Nov-20 19:32N 36°00' E 120°16'0 0.0
2014-Nov-20 18:32N 36°00' E 120°16'0 0.0
2014-Nov-20 17:20N 36°00' E 120°16'0 0.0
2014-Nov-20 16:32N 36°00' E 120°16'0 0.0
2014-Nov-20 15:32N 36°00' E 120°16'0 0.0
2014-Nov-20 14:20N 36°00' E 120°16'0 0.0
2014-Nov-20 13:26N 36°00' E 120°16'0 0.0
2014-Nov-20 12:32N 36°00' E 120°16'0 0.0
2014-Nov-20 08:29N 36°00' E 120°16'2 1.8
2014-Nov-20 07:33N 36°02' E 120°16'4 4.2
2014-Nov-20 06:33N 36°06' E 120°15'0 0.0
2014-Nov-20 05:16N 36°06' E 120°15'0 0.0
2014-Nov-20 04:22N 36°06' E 120°15'0 0.1
2014-Nov-20 03:28N 36°06' E 120°15'0 0.0
2014-Nov-20 02:22N 36°06' E 120°15'0 0.0
2014-Nov-20 01:10N 36°06' E 120°15'0 0.1
2014-Nov-20 00:28N 36°06' E 120°15'0 0.0
2014-Nov-19 23:16N 36°06' E 120°15'0 0.0
2014-Nov-19 22:22N 36°06' E 120°15'0 0.0
2014-Nov-19 21:22N 36°06' E 120°15'0 0.0
2014-Nov-19 19:22N 36°06' E 120°15'0 0.1
2014-Nov-19 18:28N 36°06' E 120°15'0 0.0
2014-Nov-19 15:16N 36°06' E 120°15'0 0.0
2014-Nov-19 14:28N 36°06' E 120°15'0 0.0
2014-Nov-19 11:28N 36°06' E 120°15'0 0.0
2014-Nov-19 10:28N 36°06' E 120°15'0 0.1
2014-Nov-19 09:28N 36°06' E 120°15'0 0.0
2014-Nov-19 08:16N 36°06' E 120°15'0 0.0
2014-Nov-19 07:16N 36°06' E 120°15'0 0.0
2014-Nov-19 05:22N 36°06' E 120°15'0 0.0
2014-Nov-19 04:16N 36°06' E 120°15'0 0.0
2014-Nov-18 23:22N 36°06' E 120°15'0 0.0
2014-Nov-18 22:22N 36°06' E 120°15'0 0.0
2014-Nov-18 21:10N 36°06' E 120°15'0 0.0
2014-Nov-18 20:16N 36°06' E 120°15'0 0.0
2014-Nov-18 19:22N 36°06' E 120°15'0 0.1
2014-Nov-18 18:16N 36°06' E 120°15'0 0.0
2014-Nov-18 17:28N 36°06' E 120°15'0 0.0
2014-Nov-18 16:16N 36°06' E 120°15'0 0.1
2014-Nov-18 15:28N 36°06' E 120°15'0 0.0
2014-Nov-18 14:28N 36°06' E 120°15'0 0.0
2014-Nov-18 13:22N 36°06' E 120°15'0 0.0
2014-Nov-18 09:04N 36°06' E 120°15'0 0.0
2014-Nov-18 08:28N 36°06' E 120°15'0 0.0
2014-Nov-18 07:28N 36°06' E 120°15'0 0.0
2014-Nov-18 06:22N 36°06' E 120°15'0 0.1
2014-Nov-18 05:16N 36°06' E 120°15'0 0.1
2014-Nov-18 04:28N 36°06' E 120°15'0 0.1
2014-Nov-18 03:33N 36°06' E 120°15'7 0.4
2014-Nov-17 09:18N 35°60' E 120°12'0 0.0
2014-Nov-17 06:24N 35°60' E 120°12'0 0.0
2014-Nov-16 19:06N 35°60' E 120°12'0 0.0
2014-Nov-16 17:06N 35°60' E 120°12'0 0.0
2014-Nov-16 14:22N 35°60' E 120°12'5 6.1
2014-Nov-16 13:32N 36°02' E 120°17'9 9.1
2014-Nov-16 12:33N 36°00' E 120°28'6 6.5
2014-Nov-16 11:33N 35°59' E 120°36'9 6.0
2014-Nov-16 10:04N 35°56' E 120°46'  
2014-Nov-13 11:13N 34°05' E 130°43'  

Dump ship's entire track history